Estherville, Iowa
Current Conditions -  °F | °C
As of 10:52 AM on Friday 28 Nov 2014 (Local Time) from KEST Reporting Station
Few Clouds Few Clouds  
Wind Chill: -14°   Ceiling: Unl
Heat Index: -7°   Visibility: 9mi
Dew Point: -8°   Wind: 13mph
Humidity: 89%   Direction: 150°SSE
Pressure: 29.84"   Gusts: NA
Location:  43.4°N, 94.84°W
Report Text: KEST 281652Z AUTO 15011KT 9SM FEW120 M07/M08 A2984 RMK AO2 SLP130 T10671083
Loading
Personal Weather Stations






























Interactive Weather Map New forecast layout! Learn more

10-Day Weather Forecast

Advertisements
Track Severe Weather on mobile